createdAt,value
2023-04-18T00:01:24.884Z,26.50
2023-04-18T00:03:52.225Z,28.00
2023-04-18T00:06:21.152Z,24.13
2023-04-18T00:08:48.303Z,25.73
2023-04-18T00:11:15.077Z,26.73
2023-04-18T00:13:42.203Z,28.20
2023-04-18T00:16:09.065Z,26.20
2023-04-18T00:18:36.920Z,26.80
2023-04-18T00:21:04.503Z,25.00
2023-04-18T00:23:33.526Z,24.63
2023-04-18T00:26:00.471Z,28.60
2023-04-18T00:28:28.063Z,24.20
2023-04-18T00:30:55.228Z,26.40
2023-04-18T00:33:22.217Z,30.23
2023-04-18T00:35:52.536Z,30.97
2023-04-18T00:38:19.567Z,27.83
2023-04-18T00:40:48.108Z,25.90
2023-04-18T00:43:15.345Z,27.73
2023-04-18T00:45:42.281Z,25.03
2023-04-18T00:48:10.440Z,27.00
2023-04-18T00:50:37.869Z,29.43
2023-04-18T00:53:05.216Z,26.73
2023-04-18T00:55:32.152Z,28.63
2023-04-18T00:57:59.189Z,28.23
2023-04-18T01:00:26.215Z,26.07
2023-04-18T01:02:55.841Z,26.07
2023-04-18T01:05:23.412Z,27.57
2023-04-18T01:07:50.553Z,25.77
2023-04-18T01:10:17.936Z,25.40
2023-04-18T01:12:45.012Z,25.83
2023-04-18T01:15:11.862Z,26.90
2023-04-18T01:17:39.697Z,29.23
2023-04-18T01:20:07.170Z,26.07
2023-04-18T01:22:34.284Z,26.70
2023-04-18T01:25:06.911Z,27.50
2023-04-18T01:27:34.002Z,25.93
2023-04-18T01:30:00.727Z,26.00
2023-04-18T01:32:30.263Z,28.53
2023-04-18T01:34:57.016Z,23.90
2023-04-18T01:37:24.172Z,24.13
2023-04-18T01:39:50.921Z,23.47
2023-04-18T01:42:19.207Z,24.43
2023-04-18T01:44:45.957Z,35.17
2023-04-18T01:47:13.143Z,30.77
2023-04-18T01:49:42.780Z,24.73
2023-04-18T01:52:09.898Z,27.63
2023-04-18T01:54:36.641Z,30.03
2023-04-18T01:57:03.796Z,26.10
2023-04-18T01:59:30.520Z,28.73
2023-04-18T02:01:58.912Z,30.10
2023-04-18T02:04:26.537Z,29.07
2023-04-18T02:06:53.582Z,24.83
2023-04-18T02:09:20.981Z,23.90
2023-04-18T02:11:47.963Z,28.40
2023-04-18T02:14:15.217Z,26.73
2023-04-18T02:16:42.424Z,23.80
2023-04-18T02:19:09.196Z,24.57
2023-04-18T02:21:36.226Z,28.57
2023-04-18T02:24:02.900Z,22.97
2023-04-18T02:26:29.640Z,26.57
2023-04-18T02:28:58.714Z,24.70
2023-04-18T02:31:25.698Z,27.20
2023-04-18T02:33:52.730Z,25.40
2023-04-18T02:36:21.637Z,27.53
2023-04-18T02:38:48.583Z,28.73
2023-04-18T02:41:19.352Z,33.40
2023-04-18T02:43:47.323Z,24.63
2023-04-18T02:46:15.865Z,26.03
2023-04-18T02:48:45.661Z,23.10
2023-04-18T02:51:13.606Z,26.27
2023-04-18T02:53:40.903Z,26.23
2023-04-18T02:56:07.913Z,28.47
2023-04-18T02:59:04.011Z,23.77
2023-04-18T03:01:58.647Z,25.33
2023-04-18T03:04:25.918Z,30.17
2023-04-18T03:06:59.225Z,25.20
2023-04-18T03:09:27.664Z,25.23
2023-04-18T03:11:59.115Z,28.20
2023-04-18T03:14:29.368Z,22.07
2023-04-18T03:16:56.500Z,24.90
2023-04-18T03:19:28.440Z,22.90
2023-04-18T03:21:57.809Z,22.67
2023-04-18T03:24:24.792Z,25.30
2023-04-18T03:26:53.851Z,22.87
2023-04-18T03:29:24.494Z,28.57
2023-04-18T03:31:51.625Z,25.03
2023-04-18T03:34:18.677Z,25.53
2023-04-18T03:36:47.837Z,23.63
2023-04-18T03:39:15.385Z,22.13
2023-04-18T03:41:42.692Z,23.87
2023-04-18T03:44:10.079Z,23.97
2023-04-18T03:46:39.577Z,23.33
2023-04-18T03:49:07.125Z,25.17
2023-04-18T03:51:43.264Z,24.33
2023-04-18T03:54:10.624Z,21.20
2023-04-18T03:56:37.582Z,26.23
2023-04-18T03:59:04.630Z,24.30
2023-04-18T04:01:31.754Z,24.27
2023-04-18T04:03:59.172Z,27.47
2023-04-18T04:06:26.441Z,26.17
2023-04-18T04:08:54.441Z,23.43
2023-04-18T04:11:24.784Z,24.27
2023-04-18T04:13:53.268Z,26.93
2023-04-18T04:16:24.206Z,22.83
2023-04-18T04:18:53.204Z,25.17
2023-04-18T04:21:24.460Z,25.67
2023-04-18T04:23:53.516Z,26.40
2023-04-18T04:26:30.696Z,23.43
2023-04-18T04:29:03.714Z,24.43
2023-04-18T04:31:32.581Z,25.90
2023-04-18T04:33:59.618Z,23.50
2023-04-18T04:36:27.262Z,25.10
2023-04-18T04:38:56.384Z,23.83
2023-04-18T04:41:32.907Z,24.87
2023-04-18T04:44:01.849Z,27.80
2023-04-18T04:46:31.821Z,28.60
2023-04-18T04:49:01.279Z,23.70
2023-04-18T04:51:28.149Z,25.83
2023-04-18T04:53:55.591Z,24.13
2023-04-18T04:56:23.124Z,29.10
2023-04-18T04:58:50.539Z,27.50
2023-04-18T05:01:21.975Z,26.47
2023-04-18T05:03:51.982Z,26.13
2023-04-18T05:06:20.784Z,26.20
2023-04-18T05:08:48.666Z,25.20
2023-04-18T05:11:15.985Z,26.90
2023-04-18T05:13:43.342Z,28.50
2023-04-18T05:16:10.204Z,26.57
2023-04-18T05:18:41.412Z,22.80
2023-04-18T05:21:08.329Z,23.33
2023-04-18T05:23:36.972Z,26.90
2023-04-18T05:26:05.162Z,25.97
2023-04-18T05:28:32.401Z,26.87
2023-04-18T05:31:01.758Z,26.97
2023-04-18T05:33:29.828Z,28.77
2023-04-18T05:35:57.564Z,24.50
2023-04-18T05:38:24.994Z,26.83
2023-04-18T05:40:51.745Z,25.87
2023-04-18T05:43:19.449Z,25.50
2023-04-18T05:45:46.577Z,22.33
2023-04-18T05:48:14.017Z,25.43
2023-04-18T05:50:40.764Z,29.17
2023-04-18T05:53:07.854Z,30.63
2023-04-18T05:55:34.560Z,26.83
2023-04-18T05:58:01.566Z,25.57
2023-04-18T06:00:28.373Z,26.73
2023-04-18T06:02:55.467Z,26.53
2023-04-18T06:05:22.808Z,26.03
2023-04-18T06:07:50.085Z,27.23
2023-04-18T06:10:17.144Z,29.53
2023-04-18T06:12:44.228Z,29.00
2023-04-18T06:15:11.519Z,28.37
2023-04-18T06:17:38.584Z,28.53
2023-04-18T06:20:06.228Z,36.70
2023-04-18T06:22:36.695Z,26.93
2023-04-18T06:25:03.995Z,23.90
2023-04-18T06:27:32.037Z,27.43
2023-04-18T06:29:59.128Z,25.17
2023-04-18T06:32:26.462Z,28.30
2023-04-18T06:34:53.338Z,29.83
2023-04-18T06:37:20.685Z,24.37
2023-04-18T06:39:47.456Z,29.47
2023-04-18T06:42:14.466Z,31.60
2023-04-18T06:44:44.831Z,30.03
2023-04-18T06:47:12.248Z,28.03
2023-04-18T06:49:38.941Z,27.33
2023-04-18T06:52:06.193Z,24.37
2023-04-18T06:54:32.962Z,23.97
2023-04-18T06:57:02.107Z,23.93
2023-04-18T06:59:28.875Z,24.40
2023-04-18T07:01:56.023Z,23.60
2023-04-18T07:04:22.972Z,26.93
2023-04-18T07:06:51.697Z,24.93
2023-04-18T07:09:18.388Z,27.07
2023-04-18T07:11:45.547Z,24.20
2023-04-18T07:14:12.673Z,74.97
2023-04-18T07:16:39.938Z,64.07
2023-04-18T07:19:06.827Z,26.00
2023-04-18T07:21:33.871Z,27.13
2023-04-18T07:24:00.870Z,26.33
2023-04-18T07:26:28.130Z,26.17
2023-04-18T07:28:54.845Z,27.20
2023-04-18T07:31:21.998Z,30.70
2023-04-18T07:33:48.814Z,29.57
2023-04-18T07:36:15.851Z,26.80
2023-04-18T07:38:42.738Z,25.10
2023-04-18T07:41:09.961Z,28.70
2023-04-18T07:43:38.565Z,24.17
2023-04-18T07:46:06.374Z,25.80
2023-04-18T07:48:33.453Z,23.25
2023-04-18T07:51:00.457Z,25.60
2023-04-18T07:53:27.160Z,22.45
2023-04-18T07:55:54.763Z,22.10
2023-04-18T07:58:21.743Z,26.27
2023-04-18T08:00:48.771Z,23.47
2023-04-18T08:03:16.208Z,20.17
2023-04-18T08:05:43.589Z,22.43
2023-04-18T08:08:12.184Z,23.57
2023-04-18T08:10:39.341Z,24.70
2023-04-18T08:13:06.642Z,28.23
2023-04-18T08:15:33.860Z,24.70
2023-04-18T08:18:01.103Z,23.77
2023-04-18T08:20:28.357Z,21.87
2023-04-18T08:25:25.594Z,22.33
2023-04-18T08:27:52.402Z,24.43
2023-04-18T08:30:19.534Z,29.50
2023-04-18T08:32:46.382Z,55.47
2023-04-18T08:35:13.523Z,24.27
2023-04-18T08:37:40.233Z,27.60
2023-04-18T08:40:07.770Z,24.45
2023-04-18T08:42:35.880Z,23.60
2023-04-18T08:45:04.216Z,19.50
2023-04-18T08:47:31.215Z,20.05
2023-04-18T08:49:58.542Z,20.58
2023-04-18T08:52:27.258Z,21.15
2023-04-18T08:54:54.301Z,20.20
2023-04-18T08:57:26.870Z,25.23
2023-04-18T08:59:55.454Z,18.88
2023-04-18T09:02:35.019Z,21.27
2023-04-18T09:05:19.790Z,17.10
2023-04-18T09:07:48.298Z,18.67
2023-04-18T09:10:34.844Z,21.45
2023-04-18T09:13:05.533Z,18.90
2023-04-18T09:15:32.727Z,17.35
2023-04-18T09:18:02.661Z,17.52
2023-04-18T09:20:37.522Z,21.98
2023-04-18T09:23:06.364Z,20.52
2023-04-18T09:25:34.881Z,18.05
2023-04-18T09:28:03.324Z,17.05
2023-04-18T09:30:30.506Z,17.63
2023-04-18T09:33:00.081Z,20.48
2023-04-18T09:35:27.637Z,18.02
2023-04-18T09:37:54.616Z,19.88
2023-04-18T09:40:22.148Z,16.13
2023-04-18T09:42:52.863Z,15.77
2023-04-18T09:45:20.781Z,21.52
2023-04-18T09:47:47.654Z,17.85
2023-04-18T09:50:16.823Z,15.85
2023-04-18T09:52:44.834Z,16.17
2023-04-18T09:55:16.144Z,17.02
2023-04-18T09:57:46.465Z,23.17
2023-04-18T10:00:26.611Z,21.27
2023-04-18T10:02:58.530Z,17.88
2023-04-18T10:05:36.487Z,17.33
2023-04-18T10:08:03.723Z,18.60
2023-04-18T10:10:30.828Z,16.98
2023-04-18T10:12:58.760Z,18.13
2023-04-18T10:15:28.764Z,18.83
2023-04-18T10:18:04.232Z,14.95
2023-04-18T10:20:35.197Z,18.98
2023-04-18T10:23:31.591Z,19.45
2023-04-18T10:25:59.298Z,17.65
2023-04-18T10:28:27.655Z,20.10
2023-04-18T10:31:05.725Z,15.60
2023-04-18T10:33:42.529Z,20.00
2023-04-18T10:36:09.819Z,15.93
2023-04-18T10:38:45.144Z,16.58
2023-04-18T10:41:32.315Z,17.63
2023-04-18T10:44:14.654Z,17.02
2023-04-18T10:46:51.179Z,16.80
2023-04-18T10:49:28.378Z,15.45
2023-04-18T10:52:01.805Z,16.05
2023-04-18T10:54:41.769Z,20.45
2023-04-18T10:57:10.038Z,16.33
2023-04-18T10:59:44.543Z,17.70
2023-04-18T11:02:11.487Z,16.05
2023-04-18T11:04:39.349Z,16.67
2023-04-18T11:07:06.419Z,16.40
2023-04-18T11:09:33.156Z,17.75
2023-04-18T11:12:11.416Z,17.83
2023-04-18T11:14:46.644Z,17.20
2023-04-18T11:17:23.580Z,15.82
2023-04-18T11:19:51.762Z,16.50
2023-04-18T11:22:19.128Z,15.32
2023-04-18T11:24:45.962Z,17.08
2023-04-18T11:27:13.865Z,16.13
2023-04-18T11:29:40.619Z,15.50
2023-04-18T11:32:08.887Z,17.25
2023-04-18T11:34:36.004Z,18.73
2023-04-18T11:37:07.548Z,16.45
2023-04-18T11:39:36.409Z,15.23
2023-04-18T11:42:03.624Z,16.30
2023-04-18T11:44:30.457Z,15.40
2023-04-18T11:46:57.491Z,14.38
2023-04-18T11:49:32.447Z,15.23
2023-04-18T11:52:01.187Z,13.73
2023-04-18T11:54:42.094Z,14.05
2023-04-18T11:57:28.261Z,15.65
2023-04-18T12:00:00.042Z,13.95
2023-04-18T12:02:38.939Z,15.70
2023-04-18T12:05:06.930Z,16.73
2023-04-18T12:07:37.351Z,16.38
2023-04-18T12:10:06.422Z,14.77
2023-04-18T12:12:34.104Z,25.52
2023-04-18T12:15:07.315Z,15.95
2023-04-18T12:17:37.230Z,15.60
2023-04-18T12:20:05.817Z,18.35
2023-04-18T12:22:42.066Z,14.10
2023-04-18T12:25:24.370Z,12.15
2023-04-18T12:28:14.789Z,14.50
2023-04-18T12:30:42.648Z,13.85
2023-04-18T12:33:11.291Z,17.65
2023-04-18T12:35:38.040Z,14.02
2023-04-18T12:38:05.902Z,30.30
2023-04-18T12:40:32.587Z,16.23
2023-04-18T12:43:00.570Z,21.05
2023-04-18T12:45:29.536Z,18.08
2023-04-18T12:47:56.928Z,15.15
2023-04-18T12:50:25.795Z,15.88
2023-04-18T12:52:54.673Z,15.35
2023-04-18T12:55:22.768Z,14.48
2023-04-18T12:57:51.655Z,20.08
2023-04-18T13:00:18.388Z,16.15
2023-04-18T13:02:52.500Z,15.63
2023-04-18T13:05:21.719Z,14.82
2023-04-18T13:07:49.794Z,18.15
2023-04-18T13:10:19.318Z,15.07
2023-04-18T13:12:47.235Z,16.73
2023-04-18T13:15:14.073Z,17.08
2023-04-18T13:17:41.311Z,12.40
2023-04-18T13:20:12.361Z,14.48
2023-04-18T13:22:40.607Z,15.55
2023-04-18T13:25:10.375Z,13.88
2023-04-18T13:27:41.907Z,16.15
2023-04-18T13:30:10.671Z,16.38
2023-04-18T13:32:39.241Z,15.80
2023-04-18T13:35:08.330Z,15.57
2023-04-18T13:37:35.734Z,19.58
2023-04-18T13:40:06.973Z,15.32
2023-04-18T13:45:20.721Z,14.75
2023-04-18T13:47:47.790Z,13.27
2023-04-18T13:50:14.597Z,13.48
2023-04-18T13:52:41.604Z,17.35
2023-04-18T13:55:10.493Z,17.80
2023-04-18T13:57:37.536Z,23.35
2023-04-18T14:00:06.579Z,16.58
2023-04-18T14:02:39.108Z,14.35
2023-04-18T14:05:07.246Z,12.40
2023-04-18T14:07:34.442Z,11.57
2023-04-18T14:10:01.168Z,15.25
2023-04-18T14:12:50.693Z,13.77
2023-04-18T14:18:55.272Z,15.80
2023-04-18T14:21:22.649Z,19.02
2023-04-18T14:23:52.073Z,19.65
2023-04-18T14:26:19.395Z,15.77
2023-04-18T14:28:46.639Z,18.30
2023-04-18T14:31:14.384Z,23.95
2023-04-18T14:33:42.155Z,17.10
2023-04-18T14:36:09.768Z,18.02
2023-04-18T14:38:36.788Z,18.83
2023-04-18T14:41:04.958Z,19.83
2023-04-18T14:43:32.317Z,22.38
2023-04-18T14:45:59.784Z,16.05
2023-04-18T14:48:27.733Z,17.45
2023-04-18T14:50:58.700Z,15.75
2023-04-18T14:53:26.381Z,16.38
2023-04-18T14:55:53.192Z,14.77
2023-04-18T14:58:20.647Z,14.50
2023-04-18T15:00:47.495Z,18.05
2023-04-18T15:03:15.770Z,14.65
2023-04-18T15:05:49.157Z,15.82
2023-04-18T15:08:16.273Z,16.58
2023-04-18T15:10:43.261Z,16.48
2023-04-18T15:13:11.553Z,17.48
2023-04-18T15:15:39.742Z,15.30
2023-04-18T15:18:08.325Z,14.18
2023-04-18T15:20:37.076Z,18.83
2023-04-18T15:23:04.404Z,16.55
2023-04-18T15:25:31.206Z,14.02
2023-04-18T15:27:58.613Z,15.88
2023-04-18T15:30:25.682Z,22.52
2023-04-18T15:32:54.015Z,17.17
2023-04-18T15:35:21.110Z,13.52
2023-04-18T15:37:49.164Z,16.08
2023-04-18T15:40:16.524Z,18.55
2023-04-18T15:42:44.010Z,14.60
2023-04-18T15:45:11.608Z,15.07
2023-04-18T15:47:38.893Z,15.70
2023-04-18T15:50:06.955Z,16.90
2023-04-18T15:52:34.293Z,15.23
2023-04-18T15:55:01.349Z,17.23
2023-04-18T15:57:29.954Z,17.75
2023-04-18T15:59:57.156Z,15.20
2023-04-18T16:02:24.196Z,18.03
2023-04-18T16:04:51.219Z,19.33
2023-04-18T16:07:18.330Z,19.45
2023-04-18T16:09:45.056Z,15.40
2023-04-18T16:12:12.059Z,19.27
2023-04-18T16:14:38.755Z,17.60
2023-04-18T16:17:05.770Z,20.92
2023-04-18T16:19:33.925Z,25.30
2023-04-18T16:22:02.872Z,20.50
2023-04-18T16:24:30.839Z,20.75
2023-04-18T16:26:58.506Z,18.35
2023-04-18T16:29:25.424Z,20.33
2023-04-18T16:31:52.642Z,20.80
2023-04-18T16:34:19.499Z,21.92
2023-04-18T16:36:46.518Z,19.40
2023-04-18T16:39:13.602Z,17.48
2023-04-18T16:41:40.807Z,21.70
2023-04-18T16:44:07.618Z,19.70
2023-04-18T16:46:34.776Z,23.37
2023-04-18T16:49:01.618Z,18.27
2023-04-18T16:51:28.884Z,17.27
2023-04-18T16:53:55.813Z,17.37
2023-04-18T16:56:22.801Z,18.63
2023-04-18T16:58:49.548Z,19.60
2023-04-18T17:01:16.558Z,16.87
2023-04-18T17:03:43.387Z,19.20
2023-04-18T17:06:10.495Z,19.77
2023-04-18T17:08:37.381Z,18.07
2023-04-18T17:11:04.691Z,22.53
2023-04-18T17:13:31.629Z,22.57
2023-04-18T17:15:58.811Z,21.17
2023-04-18T17:18:25.660Z,21.05
2023-04-18T17:20:52.727Z,19.60
2023-04-18T17:23:19.601Z,22.30
2023-04-18T17:25:46.625Z,16.63
2023-04-18T17:28:15.911Z,22.57
2023-04-18T17:30:42.974Z,21.43
2023-04-18T17:33:10.455Z,22.03
2023-04-18T17:35:40.901Z,19.73
2023-04-18T17:38:08.272Z,18.43
2023-04-18T17:40:35.321Z,18.43
2023-04-18T17:43:02.023Z,21.17
2023-04-18T17:45:29.109Z,18.23
2023-04-18T17:47:57.574Z,18.17
2023-04-18T17:50:25.019Z,22.57
2023-04-18T17:52:51.755Z,15.33
2023-04-18T17:55:18.940Z,18.83
2023-04-18T17:57:45.733Z,17.67
2023-04-18T18:00:14.583Z,19.63
2023-04-18T18:02:42.765Z,25.03
2023-04-18T18:05:13.663Z,20.13
2023-04-18T18:07:43.093Z,17.63
2023-04-18T18:10:11.265Z,17.30
2023-04-18T18:12:38.222Z,15.90
2023-04-18T18:15:06.843Z,16.57
2023-04-18T18:17:33.750Z,16.50
2023-04-18T18:20:00.781Z,16.23
2023-04-18T18:22:28.357Z,17.77
2023-04-18T18:24:56.036Z,14.37
2023-04-18T18:27:22.765Z,15.93
2023-04-18T18:29:50.400Z,17.43
2023-04-18T18:32:17.180Z,15.55
2023-04-18T18:34:44.156Z,18.00
2023-04-18T18:37:10.874Z,17.47
2023-04-18T18:39:37.954Z,20.30
2023-04-18T18:42:04.811Z,16.07
2023-04-18T18:44:32.768Z,20.37
2023-04-18T18:46:59.943Z,17.97
2023-04-18T18:49:27.305Z,21.60
2023-04-18T18:51:54.027Z,17.30
2023-04-18T18:54:21.143Z,17.90
2023-04-18T18:56:48.165Z,17.13
2023-04-18T18:59:16.090Z,16.93
2023-04-18T19:01:43.175Z,19.60
2023-04-18T19:04:10.907Z,17.37
2023-04-18T19:06:37.761Z,15.53
2023-04-18T19:09:05.309Z,19.17
2023-04-18T19:11:32.091Z,18.33
2023-04-18T19:13:59.094Z,18.93
2023-04-18T19:16:25.974Z,17.37
2023-04-18T19:18:52.999Z,14.93
2023-04-18T19:21:20.225Z,17.03
2023-04-18T19:23:47.325Z,14.00
2023-04-18T19:26:14.298Z,18.77
2023-04-18T19:28:41.493Z,16.13
2023-04-18T19:31:09.606Z,16.00
2023-04-18T19:33:37.881Z,17.27
2023-04-18T19:36:05.015Z,17.80
2023-04-18T19:38:32.523Z,18.50
2023-04-18T19:40:59.232Z,18.33
2023-04-18T19:43:26.243Z,20.07
2023-04-18T19:45:55.111Z,21.97
2023-04-18T19:48:22.429Z,18.90
2023-04-18T19:50:49.641Z,21.47
2023-04-18T19:53:18.887Z,21.93
2023-04-18T19:55:46.049Z,15.17
2023-04-18T19:58:33.337Z,14.10
2023-04-18T20:01:00.611Z,17.77
2023-04-18T20:03:27.820Z,11.73
2023-04-18T20:05:54.740Z,15.67
2023-04-18T20:08:21.701Z,13.30
2023-04-18T20:10:48.461Z,12.23
2023-04-18T20:13:16.033Z,12.90
2023-04-18T20:15:42.745Z,10.67
2023-04-18T20:18:09.790Z,11.57
2023-04-18T20:20:36.868Z,9.00
2023-04-18T20:23:03.965Z,14.23
2023-04-18T20:25:32.961Z,13.93
2023-04-18T20:28:00.213Z,11.30
2023-04-18T20:30:26.986Z,11.07
2023-04-18T20:32:54.093Z,12.60
2023-04-18T20:35:22.269Z,13.90
2023-04-18T20:37:49.851Z,13.73
2023-04-18T20:40:16.614Z,13.57
2023-04-18T20:42:43.567Z,12.20
2023-04-18T20:45:11.151Z,10.13
2023-04-18T20:47:41.418Z,12.23
2023-04-18T20:50:09.172Z,18.23
2023-04-18T20:52:36.474Z,14.47
2023-04-18T20:55:03.452Z,13.03
2023-04-18T20:57:30.716Z,17.13
2023-04-18T20:59:58.652Z,11.67
2023-04-18T21:02:26.421Z,13.97
2023-04-18T21:04:53.586Z,10.73
2023-04-18T21:07:20.613Z,16.00
2023-04-18T21:09:47.491Z,12.43
2023-04-18T21:12:14.473Z,12.83
2023-04-18T21:14:41.215Z,14.77
2023-04-18T21:17:09.815Z,12.37
2023-04-18T21:19:36.881Z,14.23
2023-04-18T21:22:04.313Z,17.83
2023-04-18T21:24:31.107Z,12.07
2023-04-18T21:26:58.622Z,12.37
2023-04-18T21:29:25.396Z,18.20
2023-04-18T21:31:52.581Z,10.23
2023-04-18T21:34:20.089Z,11.27
2023-04-18T21:36:47.086Z,9.43
2023-04-18T21:39:13.913Z,7.80
2023-04-18T21:41:41.372Z,9.53
2023-04-18T21:44:08.130Z,7.20
2023-04-18T21:46:35.156Z,13.97
2023-04-18T21:49:01.954Z,5.80
2023-04-18T21:51:29.138Z,9.30
2023-04-18T21:53:55.924Z,7.80
2023-04-18T21:56:22.927Z,12.43
2023-04-18T21:58:49.706Z,11.23
2023-04-18T22:01:16.803Z,11.63
2023-04-18T22:03:43.840Z,12.30
2023-04-18T22:06:11.814Z,11.10
2023-04-18T22:08:38.891Z,7.53
2023-04-18T22:11:05.934Z,7.27
2023-04-18T22:13:35.662Z,6.37
2023-04-18T22:16:03.535Z,10.27
2023-04-18T22:18:33.795Z,12.83
2023-04-18T22:21:03.297Z,8.87
2023-04-18T22:23:30.560Z,9.73
2023-04-18T22:25:57.802Z,10.37
2023-04-18T22:28:24.652Z,8.80
2023-04-18T22:30:51.745Z,13.17
2023-04-18T22:33:18.510Z,10.37
2023-04-18T22:35:47.732Z,12.27
2023-04-18T22:38:14.616Z,7.87
2023-04-18T22:40:41.829Z,10.40
2023-04-18T22:43:08.590Z,7.23
2023-04-18T22:45:35.835Z,7.97
2023-04-18T22:48:02.631Z,9.77
2023-04-18T22:50:30.228Z,12.00
2023-04-18T22:52:57.443Z,11.23
2023-04-18T22:55:24.594Z,7.10
2023-04-18T22:57:51.307Z,8.27
2023-04-18T23:00:18.780Z,9.27
2023-04-18T23:02:45.784Z,9.37
2023-04-18T23:05:15.477Z,11.23
2023-04-18T23:07:42.220Z,7.17
2023-04-18T23:10:09.785Z,9.93
2023-04-18T23:12:36.486Z,9.87
2023-04-18T23:15:03.778Z,7.27
2023-04-18T23:17:30.787Z,8.50
2023-04-18T23:19:57.884Z,9.10
2023-04-18T23:22:24.643Z,9.90
2023-04-18T23:24:51.673Z,10.80
2023-04-18T23:27:19.134Z,9.77
2023-04-18T23:29:49.548Z,9.07
2023-04-18T23:32:16.409Z,7.07
2023-04-18T23:34:45.417Z,8.83
2023-04-18T23:37:12.179Z,12.80
2023-04-18T23:39:39.246Z,8.37
2023-04-18T23:42:06.021Z,11.10
2023-04-18T23:44:33.024Z,11.80
2023-04-18T23:46:59.757Z,9.27
2023-04-18T23:49:28.167Z,11.03
2023-04-18T23:51:54.929Z,8.53
2023-04-18T23:54:21.900Z,9.57
2023-04-18T23:56:48.760Z,10.00
2023-04-18T23:59:15.867Z,8.27
